Time;durP1;ratioP1;P1;durP2;ratioP2;P2;SDS_P1;SDS_P2;PMS_P1;PMS_P2;Temp;Humidity;BMP_temperature;BMP_pressure;BME280_temperature;BME280_humidity;BME280_pressure;Samples;Min_cycle;Max_cycle;Signal;HPM_P1;HPM_P2
2022/08/06 00:00:04;;;;;;;;;;;24.40;99.90;;;;;;4592158;19;19919;-34
2022/08/06 00:01:55;;;;;;;;;;;24.30;99.90;;;;;;4593931;19;19928;-34
2022/08/06 00:03:26;;;;;;;;;;;24.40;99.90;;;;;;4593429;19;19925;-36
2022/08/06 00:04:58;;;;;;;;;;;24.60;99.90;;;;;;4593334;19;19919;-36
2022/08/06 00:06:29;;;;;;;;;;;24.60;99.90;;;;;;4592294;19;19930;-36
2022/08/06 00:08:00;;;;;;;;;;;24.60;99.90;;;;;;4593654;19;19974;-34
2022/08/06 00:09:32;;;;;;;;;;;24.40;99.90;;;;;;4592964;19;19925;-34
2022/08/06 00:11:03;;;;;;;;;;;24.20;99.90;;;;;;4593133;19;19919;-31
2022/08/06 00:12:34;;;;;;;;;;;24.10;99.90;;;;;;4594013;19;19915;-33
2022/08/06 00:14:05;;;;;;;;;;;24.40;99.90;;;;;;4593114;19;19922;-37
2022/08/06 00:15:36;;;;;;;;;;;24.60;99.90;;;;;;4591844;19;19941;-33
2022/08/06 00:17:07;;;;;;;;;;;24.60;99.90;;;;;;4593035;19;20313;-38
2022/08/06 00:18:38;;;;;;;;;;;24.60;99.90;;;;;;4592393;19;19919;-34
2022/08/06 00:20:09;;;;;;;;;;;24.80;99.90;;;;;;4592909;19;19915;-33
2022/08/06 00:21:41;;;;;;;;;;;24.90;99.90;;;;;;4593139;19;19919;-35
2022/08/06 00:23:12;;;;;;;;;;;24.80;99.90;;;;;;4593083;19;19982;-38
2022/08/06 00:24:43;;;;;;;;;;;24.60;99.90;;;;;;4592741;19;19919;-35
2022/08/06 00:26:14;;;;;;;;;;;24.60;99.90;;;;;;4591924;19;20237;-37
2022/08/06 00:27:45;;;;;;;;;;;24.50;99.90;;;;;;4592983;19;19910;-34
2022/08/06 00:29:16;;;;;;;;;;;24.40;99.90;;;;;;4593466;19;19939;-36
2022/08/06 00:30:47;;;;;;;;;;;24.40;99.90;;;;;;4591445;19;19919;-33
2022/08/06 00:32:18;;;;;;;;;;;24.40;99.90;;;;;;4592495;19;19915;-33
2022/08/06 00:33:48;;;;;;;;;;;24.40;99.90;;;;;;4593522;19;19914;-35
2022/08/06 00:35:20;;;;;;;;;;;24.40;99.90;;;;;;4593464;19;19932;-35
2022/08/06 00:36:51;;;;;;;;;;;24.40;99.90;;;;;;4591370;19;19918;-34
2022/08/06 00:38:22;;;;;;;;;;;24.30;99.90;;;;;;4592429;19;19919;-35
2022/08/06 00:39:53;;;;;;;;;;;24.40;99.90;;;;;;4593198;19;20316;-36
2022/08/06 00:41:24;;;;;;;;;;;24.30;99.90;;;;;;4592568;19;20372;-35
2022/08/06 00:42:58;;;;;;;;;;;24.50;99.90;;;;;;4592689;19;19919;-36
2022/08/06 00:44:29;;;;;;;;;;;24.60;99.90;;;;;;4591450;19;19933;-35
2022/08/06 00:46:00;;;;;;;;;;;24.50;99.90;;;;;;4591937;19;20234;-40
2022/08/06 00:47:31;;;;;;;;;;;24.60;99.90;;;;;;4591319;19;19919;-42
2022/08/06 00:49:02;;;;;;;;;;;24.50;99.90;;;;;;4591682;19;19925;-32
2022/08/06 00:50:33;;;;;;;;;;;24.40;99.90;;;;;;4592541;19;19914;-40
2022/08/06 00:52:04;;;;;;;;;;;24.40;99.90;;;;;;4592647;19;19985;-41
2022/08/06 00:53:36;;;;;;;;;;;24.20;99.90;;;;;;4590899;19;19919;-36
2022/08/06 00:55:07;;;;;;;;;;;24.00;99.90;;;;;;4591724;19;20233;-33
2022/08/06 00:56:38;;;;;;;;;;;23.90;99.90;;;;;;4590577;19;19925;-35
2022/08/06 00:58:09;;;;;;;;;;;24.00;99.90;;;;;;4592249;19;19948;-43
2022/08/06 00:59:40;;;;;;;;;;;23.90;99.90;;;;;;4592163;19;20238;-34
2022/08/06 01:01:11;;;;;;;;;;;23.90;99.90;;;;;;4591810;19;19921;-33
2022/08/06 01:02:42;;;;;;;;;;;23.90;99.90;;;;;;4592293;19;19928;-40
2022/08/06 01:04:13;;;;;;;;;;;23.80;99.90;;;;;;4592176;19;19914;-36
2022/08/06 01:05:44;;;;;;;;;;;23.70;99.90;;;;;;4589774;19;19910;-40
2022/08/06 01:07:15;;;;;;;;;;;23.60;99.90;;;;;;4591474;19;19919;-41
2022/08/06 01:08:46;;;;;;;;;;;23.50;99.90;;;;;;4592668;19;19937;-33
2022/08/06 01:10:17;;;;;;;;;;;23.40;99.90;;;;;;4591987;19;19974;-33
2022/08/06 01:11:48;;;;;;;;;;;23.40;99.90;;;;;;4591537;19;19993;-33
2022/08/06 01:13:19;;;;;;;;;;;23.40;99.90;;;;;;4592145;19;20250;-37
2022/08/06 01:14:50;;;;;;;;;;;23.40;99.90;;;;;;4592527;19;19987;-33
2022/08/06 01:16:21;;;;;;;;;;;23.40;99.90;;;;;;4591956;19;19911;-33
2022/08/06 01:17:58;;;;;;;;;;;23.50;99.90;;;;;;4591918;19;20315;-33
2022/08/06 01:19:32;;;;;;;;;;;23.70;99.90;;;;;;4591856;19;19915;-33
2022/08/06 01:21:03;;;;;;;;;;;23.70;99.90;;;;;;4591473;19;19919;-33
2022/08/06 01:22:55;;;;;;;;;;;23.60;99.90;;;;;;4591497;19;19918;-33
2022/08/06 01:24:32;;;;;;;;;;;23.60;99.90;;;;;;4590521;19;19979;-33
2022/08/06 01:26:15;;;;;;;;;;;23.60;99.90;;;;;;4588630;19;19934;-33
2022/08/06 01:27:46;;;;;;;;;;;23.60;99.90;;;;;;4591164;19;19941;-33
2022/08/06 01:29:21;;;;;;;;;;;23.70;99.90;;;;;;4591844;19;20329;-34
2022/08/06 01:30:54;;;;;;;;;;;23.50;99.90;;;;;;4590450;19;19922;-38
2022/08/06 01:32:27;;;;;;;;;;;23.50;99.90;;;;;;4589828;19;20276;-37
2022/08/06 01:34:03;;;;;;;;;;;23.50;99.90;;;;;;4590674;19;19922;-37
2022/08/06 01:35:35;;;;;;;;;;;23.50;99.90;;;;;;4588579;19;19911;-34
2022/08/06 01:37:09;;;;;;;;;;;23.70;99.90;;;;;;4590890;19;19935;-34
2022/08/06 01:38:47;;;;;;;;;;;23.90;99.90;;;;;;4591553;19;19918;-34
2022/08/06 01:40:22;;;;;;;;;;;23.90;99.90;;;;;;4591581;19;19915;-34
2022/08/06 01:41:53;;;;;;;;;;;23.90;99.90;;;;;;4590537;19;19928;-37
2022/08/06 01:43:24;;;;;;;;;;;23.80;99.90;;;;;;4590044;19;19951;-40
2022/08/06 01:44:55;;;;;;;;;;;23.80;99.90;;;;;;4591133;19;19945;-39
2022/08/06 01:46:26;;;;;;;;;;;23.70;99.90;;;;;;4588845;19;19919;-42
2022/08/06 01:48:00;;;;;;;;;;;23.70;99.90;;;;;;4590529;19;19926;-41
2022/08/06 01:49:32;;;;;;;;;;;23.70;99.90;;;;;;4590981;19;19945;-33
2022/08/06 01:51:03;;;;;;;;;;;23.80;99.90;;;;;;4591378;19;19914;-33
2022/08/06 01:52:39;;;;;;;;;;;23.00;99.90;;;;;;4590905;19;19923;-39
2022/08/06 01:54:10;;;;;;;;;;;22.40;99.90;;;;;;4591007;19;20352;-38
2022/08/06 01:55:42;;;;;;;;;;;22.00;99.90;;;;;;4589458;19;19922;-35
2022/08/06 01:57:13;;;;;;;;;;;21.60;99.90;;;;;;4589844;19;19953;-39
2022/08/06 01:58:44;;;;;;;;;;;21.30;99.90;;;;;;4589638;19;19919;-35
2022/08/06 02:00:15;;;;;;;;;;;21.00;99.90;;;;;;4590658;19;20245;-33
2022/08/06 02:01:47;;;;;;;;;;;20.60;99.90;;;;;;4588780;19;19922;-37
2022/08/06 02:03:20;;;;;;;;;;;20.30;99.90;;;;;;4588437;19;19915;-33
2022/08/06 02:04:52;;;;;;;;;;;20.10;99.90;;;;;;4590254;19;19927;-36
2022/08/06 02:06:25;;;;;;;;;;;20.00;99.90;;;;;;4589903;19;19919;-34
2022/08/06 02:07:56;;;;;;;;;;;20.00;99.90;;;;;;4590846;19;20273;-34
2022/08/06 02:09:27;;;;;;;;;;;20.40;99.90;;;;;;4589540;19;19915;-34
2022/08/06 02:10:58;;;;;;;;;;;21.00;99.90;;;;;;4590250;19;19971;-36
2022/08/06 02:12:29;;;;;;;;;;;21.40;99.90;;;;;;4591025;19;19922;-43
2022/08/06 02:14:00;;;;;;;;;;;21.70;99.90;;;;;;4591096;19;19936;-37
2022/08/06 02:15:31;;;;;;;;;;;21.90;99.90;;;;;;4591260;19;19922;-37
2022/08/06 02:17:02;;;;;;;;;;;22.20;99.90;;;;;;4589428;19;19925;-34
2022/08/06 02:18:34;;;;;;;;;;;22.30;99.90;;;;;;4595358;19;19918;-34
2022/08/06 02:20:06;;;;;;;;;;;22.50;99.90;;;;;;4595220;19;19927;-43
2022/08/06 02:21:37;;;;;;;;;;;22.60;99.90;;;;;;4594626;19;20347;-35
2022/08/06 02:23:09;;;;;;;;;;;22.80;99.90;;;;;;4593552;19;19923;-40
2022/08/06 02:24:40;;;;;;;;;;;23.00;99.90;;;;;;4596198;19;19907;-36
2022/08/06 02:26:11;;;;;;;;;;;22.90;99.90;;;;;;4594574;19;19950;-34
2022/08/06 02:27:44;;;;;;;;;;;22.80;99.90;;;;;;4595341;19;19919;-39
2022/08/06 02:29:16;;;;;;;;;;;22.90;99.90;;;;;;4593378;19;20040;-33
2022/08/06 02:30:47;;;;;;;;;;;23.00;99.90;;;;;;4593494;19;19923;-33
2022/08/06 02:32:20;;;;;;;;;;;23.00;99.90;;;;;;4596102;19;19974;-39
2022/08/06 02:33:51;;;;;;;;;;;23.10;99.90;;;;;;4594401;19;19915;-32
2022/08/06 02:35:21;;;;;;;;;;;23.00;99.90;;;;;;4592605;19;19922;-36
2022/08/06 02:36:57;;;;;;;;;;;23.00;99.90;;;;;;4595714;19;19927;-38
2022/08/06 02:38:31;;;;;;;;;;;23.10;99.90;;;;;;4594909;19;19986;-38
2022/08/06 02:40:05;;;;;;;;;;;23.00;99.90;;;;;;4593119;19;19923;-38
2022/08/06 02:41:43;;;;;;;;;;;23.10;99.90;;;;;;4593261;19;19926;-39
2022/08/06 02:43:16;;;;;;;;;;;23.10;99.90;;;;;;4592469;19;19911;-34
2022/08/06 02:45:01;;;;;;;;;;;23.10;99.90;;;;;;4592036;19;19986;-33
2022/08/06 02:46:52;;;;;;;;;;;23.00;99.90;;;;;;4591142;19;19918;-34
2022/08/06 02:48:25;;;;;;;;;;;23.00;99.90;;;;;;4593415;19;19915;-38
2022/08/06 02:49:59;;;;;;;;;;;22.90;99.90;;;;;;4593893;19;19918;-38
2022/08/06 02:51:40;;;;;;;;;;;23.10;99.90;;;;;;4592182;19;19926;-36
2022/08/06 02:53:37;;;;;;;;;;;23.30;99.90;;;;;;4591602;19;19926;-35
2022/08/06 02:55:14;;;;;;;;;;;23.30;99.90;;;;;;4591060;19;19919;-36
2022/08/06 02:56:45;;;;;;;;;;;23.30;99.90;;;;;;4591458;19;20612;-33
2022/08/06 02:58:16;;;;;;;;;;;23.10;99.90;;;;;;4591143;19;19971;-33
2022/08/06 02:59:48;;;;;;;;;;;23.10;99.90;;;;;;4590507;19;19911;-39
2022/08/06 03:01:24;;;;;;;;;;;23.20;99.90;;;;;;4591075;19;19918;-34
2022/08/06 03:02:57;;;;;;;;;;;23.60;99.90;;;;;;4590927;19;20335;-37
2022/08/06 03:04:28;;;;;;;;;;;23.80;99.90;;;;;;4592933;19;20286;-38
2022/08/06 03:05:59;;;;;;;;;;;23.90;99.90;;;;;;4591574;19;19936;-39
2022/08/06 03:07:31;;;;;;;;;;;24.00;99.90;;;;;;4592306;19;20349;-36
2022/08/06 03:09:02;;;;;;;;;;;24.00;99.90;;;;;;4591938;19;20340;-38
2022/08/06 03:10:33;;;;;;;;;;;23.80;99.90;;;;;;4591691;19;19936;-40
2022/08/06 03:12:04;;;;;;;;;;;23.50;99.90;;;;;;4592882;19;19935;-33
2022/08/06 03:13:36;;;;;;;;;;;23.30;99.90;;;;;;4592511;19;19918;-43
2022/08/06 03:15:07;;;;;;;;;;;23.20;99.90;;;;;;4591876;19;19921;-35
2022/08/06 03:16:38;;;;;;;;;;;23.20;99.90;;;;;;4591717;19;19926;-41
2022/08/06 03:18:08;;;;;;;;;;;23.20;99.90;;;;;;4591697;19;20373;-39
2022/08/06 03:19:40;;;;;;;;;;;23.30;99.90;;;;;;4590561;19;19923;-33
2022/08/06 03:21:11;;;;;;;;;;;23.70;99.90;;;;;;4590519;19;19922;-33
2022/08/06 03:22:42;;;;;;;;;;;23.70;99.90;;;;;;4590065;19;19986;-36
2022/08/06 03:24:13;;;;;;;;;;;23.80;99.90;;;;;;4590599;19;19918;-42
2022/08/06 03:25:44;;;;;;;;;;;23.90;99.90;;;;;;4592117;19;19915;-33
2022/08/06 03:27:15;;;;;;;;;;;24.20;99.90;;;;;;4592427;19;19948;-38
2022/08/06 03:28:46;;;;;;;;;;;24.30;99.90;;;;;;4591200;19;19918;-39
2022/08/06 03:30:17;;;;;;;;;;;24.30;99.90;;;;;;4591121;19;19930;-33
2022/08/06 03:31:48;;;;;;;;;;;24.20;99.90;;;;;;4591868;19;20562;-33
2022/08/06 03:33:19;;;;;;;;;;;24.10;99.90;;;;;;4591862;19;19929;-38
2022/08/06 03:34:50;;;;;;;;;;;24.00;99.90;;;;;;4594941;19;19926;-38
2022/08/06 03:36:21;;;;;;;;;;;23.80;99.90;;;;;;4594140;19;20350;-41
2022/08/06 03:37:52;;;;;;;;;;;23.50;99.90;;;;;;4592968;19;19918;-33
2022/08/06 03:39:23;;;;;;;;;;;23.60;99.90;;;;;;4592486;19;20297;-34
2022/08/06 03:40:55;;;;;;;;;;;23.90;99.90;;;;;;4592501;19;19922;-34
2022/08/06 03:42:25;;;;;;;;;;;24.20;99.90;;;;;;4592711;19;19919;-41
2022/08/06 03:43:57;;;;;;;;;;;24.10;99.90;;;;;;4591494;19;19963;-37
2022/08/06 03:45:28;;;;;;;;;;;23.90;99.90;;;;;;4591668;19;19914;-34
2022/08/06 03:47:01;;;;;;;;;;;23.90;99.90;;;;;;4592216;19;19918;-33
2022/08/06 03:48:38;;;;;;;;;;;24.00;99.90;;;;;;4590801;19;19923;-35
2022/08/06 03:50:10;;;;;;;;;;;23.90;99.90;;;;;;4593145;19;19930;-41
2022/08/06 03:51:41;;;;;;;;;;;23.70;99.90;;;;;;4593709;19;19971;-33
2022/08/06 03:53:22;;;;;;;;;;;23.50;99.90;;;;;;4592984;19;19926;-33
2022/08/06 03:54:54;;;;;;;;;;;23.30;99.90;;;;;;4591449;19;20272;-33
2022/08/06 03:56:27;;;;;;;;;;;23.40;99.90;;;;;;4592121;19;19927;-33
2022/08/06 03:58:02;;;;;;;;;;;23.30;99.90;;;;;;4591613;19;19915;-34
2022/08/06 03:59:39;;;;;;;;;;;23.10;99.90;;;;;;4590928;19;19923;-41
2022/08/06 04:01:11;;;;;;;;;;;23.10;99.90;;;;;;4589806;19;19919;-33
2022/08/06 04:03:02;;;;;;;;;;;22.90;99.90;;;;;;4590936;19;19955;-33
2022/08/06 04:04:33;;;;;;;;;;;22.80;99.90;;;;;;4592496;19;19911;-36
2022/08/06 04:06:05;;;;;;;;;;;22.70;99.90;;;;;;4590658;19;20535;-36
2022/08/06 04:07:36;;;;;;;;;;;22.70;99.90;;;;;;4590089;19;19922;-41
2022/08/06 04:09:07;;;;;;;;;;;22.60;99.90;;;;;;4590884;19;20355;-37
2022/08/06 04:10:39;;;;;;;;;;;22.50;99.90;;;;;;4591287;19;19911;-33
2022/08/06 04:12:10;;;;;;;;;;;22.50;99.90;;;;;;4592550;19;19919;-34
2022/08/06 04:13:41;;;;;;;;;;;22.50;99.90;;;;;;4592072;19;19925;-40
2022/08/06 04:15:13;;;;;;;;;;;22.50;99.90;;;;;;4591608;19;19919;-34
2022/08/06 04:16:44;;;;;;;;;;;22.50;99.90;;;;;;4591256;19;19922;-33
2022/08/06 04:18:16;;;;;;;;;;;22.70;99.90;;;;;;4591595;19;19935;-33
2022/08/06 04:19:47;;;;;;;;;;;22.70;99.90;;;;;;4592032;19;20309;-35
2022/08/06 04:21:19;;;;;;;;;;;22.80;99.90;;;;;;4590762;19;19957;-33
2022/08/06 04:22:50;;;;;;;;;;;22.80;99.90;;;;;;4590259;19;20229;-38
2022/08/06 04:24:21;;;;;;;;;;;23.10;99.90;;;;;;4590106;19;19926;-41
2022/08/06 04:25:53;;;;;;;;;;;23.00;99.90;;;;;;4587951;19;20344;-33
2022/08/06 04:27:25;;;;;;;;;;;23.30;99.90;;;;;;4593181;19;19930;-33
2022/08/06 04:28:56;;;;;;;;;;;23.10;99.90;;;;;;4591843;19;19916;-36
2022/08/06 04:30:30;;;;;;;;;;;23.00;99.90;;;;;;4592379;19;19918;-35
2022/08/06 04:32:01;;;;;;;;;;;22.80;99.90;;;;;;4592257;19;19922;-33
2022/08/06 04:33:32;;;;;;;;;;;22.70;99.90;;;;;;4590223;19;20349;-35
2022/08/06 04:35:04;;;;;;;;;;;22.80;99.90;;;;;;4591057;19;19926;-40
2022/08/06 04:36:35;;;;;;;;;;;22.90;99.90;;;;;;4589630;19;19925;-38
2022/08/06 04:38:06;;;;;;;;;;;22.80;99.90;;;;;;4590704;19;20252;-34
2022/08/06 04:39:38;;;;;;;;;;;22.60;99.90;;;;;;4590540;19;19974;-37
2022/08/06 04:41:08;;;;;;;;;;;22.60;99.90;;;;;;4593418;19;20313;-40
2022/08/06 04:42:39;;;;;;;;;;;22.60;99.90;;;;;;4593061;19;19930;-39
2022/08/06 04:44:11;;;;;;;;;;;22.50;99.90;;;;;;4590772;19;19932;-34
2022/08/06 04:45:42;;;;;;;;;;;22.40;99.90;;;;;;4589405;19;19985;-37
2022/08/06 04:47:13;;;;;;;;;;;22.20;99.90;;;;;;4591228;19;19926;-38
2022/08/06 04:48:44;;;;;;;;;;;22.20;99.90;;;;;;4590621;19;20412;-36
2022/08/06 04:50:15;;;;;;;;;;;22.30;99.90;;;;;;4590524;19;19911;-33
2022/08/06 04:51:46;;;;;;;;;;;22.20;99.90;;;;;;4589833;19;19979;-38
2022/08/06 04:53:18;;;;;;;;;;;22.20;99.90;;;;;;4588718;19;19914;-37
2022/08/06 04:54:48;;;;;;;;;;;22.30;99.90;;;;;;4590707;19;19919;-39
2022/08/06 04:56:19;;;;;;;;;;;22.30;99.90;;;;;;4593051;19;19919;-35
2022/08/06 04:57:51;;;;;;;;;;;22.40;99.90;;;;;;4592595;19;19918;-33
2022/08/06 04:59:22;;;;;;;;;;;22.50;99.90;;;;;;4592542;19;19915;-39
2022/08/06 05:00:53;;;;;;;;;;;22.50;99.90;;;;;;4591740;19;19944;-40
2022/08/06 05:02:23;;;;;;;;;;;22.50;99.90;;;;;;4591589;19;19974;-33
2022/08/06 05:03:55;;;;;;;;;;;22.40;99.90;;;;;;4591177;19;19923;-34
2022/08/06 05:05:25;;;;;;;;;;;22.30;99.90;;;;;;4590152;19;19915;-33
2022/08/06 05:07:00;;;;;;;;;;;22.40;99.90;;;;;;4589149;19;19915;-43
2022/08/06 05:08:31;;;;;;;;;;;22.40;99.90;;;;;;4589083;19;20329;-39
2022/08/06 05:10:03;;;;;;;;;;;22.30;99.90;;;;;;4592134;19;19990;-40
2022/08/06 05:11:40;;;;;;;;;;;22.20;99.90;;;;;;4592240;19;20333;-36
2022/08/06 05:13:11;;;;;;;;;;;22.10;99.90;;;;;;4590121;19;20301;-33
2022/08/06 05:14:52;;;;;;;;;;;22.10;99.90;;;;;;4591162;19;19941;-33
2022/08/06 05:16:24;;;;;;;;;;;22.10;99.90;;;;;;4591254;19;19978;-33
2022/08/06 05:18:00;;;;;;;;;;;22.00;99.90;;;;;;4589141;19;19923;-34
2022/08/06 05:19:33;;;;;;;;;;;21.90;99.90;;;;;;4590083;19;20376;-36
2022/08/06 05:21:03;;;;;;;;;;;21.90;99.90;;;;;;4588487;19;19923;-39
2022/08/06 05:22:35;;;;;;;;;;;21.80;99.90;;;;;;4589029;19;19994;-40
2022/08/06 05:24:05;;;;;;;;;;;21.80;99.90;;;;;;4591191;19;20303;-36
2022/08/06 05:25:36;;;;;;;;;;;21.80;99.90;;;;;;4590646;19;20353;-35
2022/08/06 05:27:09;;;;;;;;;;;21.80;99.90;;;;;;4591863;19;19911;-33
2022/08/06 05:28:40;;;;;;;;;;;21.70;99.90;;;;;;4589879;19;19919;-34
2022/08/06 05:30:11;;;;;;;;;;;21.80;99.90;;;;;;4591054;19;19915;-33
2022/08/06 05:31:42;;;;;;;;;;;22.00;99.90;;;;;;4590791;19;19919;-32
2022/08/06 05:33:23;;;;;;;;;;;22.00;99.90;;;;;;4590308;19;19923;-40
2022/08/06 05:34:54;;;;;;;;;;;21.90;99.90;;;;;;4590161;19;19922;-39
2022/08/06 05:36:25;;;;;;;;;;;21.90;99.90;;;;;;4589099;19;19918;-37
2022/08/06 05:37:56;;;;;;;;;;;22.00;99.90;;;;;;4589241;19;20245;-34
2022/08/06 05:39:27;;;;;;;;;;;22.00;99.90;;;;;;4591341;19;19981;-36
2022/08/06 05:40:58;;;;;;;;;;;22.00;99.90;;;;;;4591593;19;19926;-35
2022/08/06 05:42:29;;;;;;;;;;;22.10;99.90;;;;;;4591727;19;19937;-33
2022/08/06 05:44:00;;;;;;;;;;;22.40;99.90;;;;;;4590464;19;20267;-36
2022/08/06 05:45:31;;;;;;;;;;;22.40;99.90;;;;;;4590260;19;20244;-33
2022/08/06 05:47:06;;;;;;;;;;;22.40;99.90;;;;;;4589393;19;19921;-33
2022/08/06 05:48:58;;;;;;;;;;;22.50;99.90;;;;;;4590383;19;19930;-40
2022/08/06 05:50:30;;;;;;;;;;;22.60;99.90;;;;;;4589758;19;19915;-42
2022/08/06 05:52:01;;;;;;;;;;;22.40;99.90;;;;;;4590398;19;19915;-38
2022/08/06 05:53:33;;;;;;;;;;;22.20;99.90;;;;;;4589471;19;19926;-33
2022/08/06 05:55:06;;;;;;;;;;;22.20;99.90;;;;;;4589985;19;19933;-38
2022/08/06 05:56:38;;;;;;;;;;;22.10;99.90;;;;;;4589604;19;19919;-37
2022/08/06 05:58:11;;;;;;;;;;;22.00;99.90;;;;;;4590475;19;20290;-30
2022/08/06 05:59:45;;;;;;;;;;;22.00;99.90;;;;;;4591266;19;19911;-34
2022/08/06 06:01:15;;;;;;;;;;;22.00;99.90;;;;;;4590164;19;19926;-39
2022/08/06 06:02:47;;;;;;;;;;;22.10;99.90;;;;;;4590642;19;20290;-35
2022/08/06 06:04:18;;;;;;;;;;;22.00;99.90;;;;;;4590707;19;19936;-34
2022/08/06 06:05:49;;;;;;;;;;;22.10;99.90;;;;;;4588709;19;19919;-33
2022/08/06 06:07:20;;;;;;;;;;;22.10;99.90;;;;;;4590483;19;20322;-36
2022/08/06 06:08:52;;;;;;;;;;;22.10;99.90;;;;;;4591512;19;19911;-36
2022/08/06 06:10:23;;;;;;;;;;;22.10;99.90;;;;;;4590141;19;19919;-35
2022/08/06 06:11:54;;;;;;;;;;;22.10;99.90;;;;;;4590940;19;19919;-32
2022/08/06 06:13:25;;;;;;;;;;;22.10;99.90;;;;;;4590455;19;19918;-36
2022/08/06 06:14:56;;;;;;;;;;;22.10;99.90;;;;;;4589078;19;19921;-33
2022/08/06 06:16:54;;;;;;;;;;;22.10;99.90;;;;;;4588634;19;19911;-33
2022/08/06 06:18:51;;;;;;;;;;;22.10;99.90;;;;;;4589656;19;19919;-41
2022/08/06 06:20:34;;;;;;;;;;;22.10;99.90;;;;;;4588803;19;19937;-34
2022/08/06 06:22:19;;;;;;;;;;;22.10;99.90;;;;;;4588990;19;19922;-35
2022/08/06 06:23:54;;;;;;;;;;;22.10;99.90;;;;;;4589181;19;19932;-36
2022/08/06 06:25:25;;;;;;;;;;;22.00;99.90;;;;;;4589048;19;19915;-34
2022/08/06 06:26:57;;;;;;;;;;;22.10;99.90;;;;;;4588088;19;19923;-35
2022/08/06 06:28:32;;;;;;;;;;;22.00;99.90;;;;;;4588156;19;19923;-35
2022/08/06 06:30:04;;;;;;;;;;;22.00;99.90;;;;;;4587817;19;19930;-42
2022/08/06 06:31:35;;;;;;;;;;;22.00;99.90;;;;;;4587161;19;19958;-34
2022/08/06 06:33:07;;;;;;;;;;;22.10;99.90;;;;;;4586841;19;19922;-40
2022/08/06 06:35:13;;;;;;;;;;;22.00;99.90;;;;;;4586449;19;19957;-35
2022/08/06 06:36:50;;;;;;;;;;;22.10;99.90;;;;;;4587303;19;19923;-35
2022/08/06 06:38:44;;;;;;;;;;;22.10;99.90;;;;;;4586433;19;19919;-38
2022/08/06 06:40:37;;;;;;;;;;;22.10;99.90;;;;;;4587105;19;19962;-32
2022/08/06 06:42:09;;;;;;;;;;;22.10;99.90;;;;;;4588091;19;19923;-33
2022/08/06 06:43:48;;;;;;;;;;;22.10;99.90;;;;;;4586396;19;19919;-33
2022/08/06 06:45:21;;;;;;;;;;;22.00;99.90;;;;;;4587183;19;19921;-34
2022/08/06 06:47:01;;;;;;;;;;;22.00;99.90;;;;;;4585540;19;20725;-35
2022/08/06 06:48:51;;;;;;;;;;;22.10;99.90;;;;;;4586806;19;19962;-42
2022/08/06 06:50:22;;;;;;;;;;;22.10;99.90;;;;;;4586996;19;19939;-34
2022/08/06 06:51:55;;;;;;;;;;;22.10;99.90;;;;;;4586158;19;19914;-38
2022/08/06 06:53:26;;;;;;;;;;;22.10;99.90;;;;;;4584596;19;20342;-40
2022/08/06 06:55:09;;;;;;;;;;;22.10;99.90;;;;;;4586294;19;19982;-35
2022/08/06 06:56:41;;;;;;;;;;;22.20;99.90;;;;;;4584272;19;19918;-37
2022/08/06 06:58:32;;;;;;;;;;;22.30;99.90;;;;;;4585832;19;19907;-39
2022/08/06 07:00:04;;;;;;;;;;;22.30;99.90;;;;;;4585073;19;20729;-38
2022/08/06 07:01:35;;;;;;;;;;;22.40;99.90;;;;;;4586853;19;20293;-35
2022/08/06 07:03:06;;;;;;;;;;;22.30;99.90;;;;;;4587734;19;19949;-35
2022/08/06 07:04:36;;;;;;;;;;;22.30;99.90;;;;;;4589503;19;19952;-35
2022/08/06 07:06:08;;;;;;;;;;;22.30;99.90;;;;;;4591019;19;19930;-34
2022/08/06 07:07:39;;;;;;;;;;;21.80;99.90;;;;;;4592118;19;20242;-34
2022/08/06 07:09:22;;;;;;;;;;;21.20;99.90;;;;;;4592383;19;19919;-36
2022/08/06 07:10:55;;;;;;;;;;;20.90;99.90;;;;;;4591752;19;20338;-38
2022/08/06 07:12:27;;;;;;;;;;;20.60;99.90;;;;;;4591705;19;19983;-41
2022/08/06 07:13:58;;;;;;;;;;;20.40;99.90;;;;;;4589765;19;20362;-35
2022/08/06 07:15:29;;;;;;;;;;;20.30;99.90;;;;;;4591617;19;19933;-37
2022/08/06 07:17:00;;;;;;;;;;;20.20;99.90;;;;;;4591979;19;19919;-35
2022/08/06 07:18:31;;;;;;;;;;;20.20;99.90;;;;;;4591670;19;19926;-38
2022/08/06 07:20:03;;;;;;;;;;;20.10;99.90;;;;;;4593334;19;20340;-41
2022/08/06 07:21:34;;;;;;;;;;;20.10;99.90;;;;;;4590880;19;19918;-37
2022/08/06 07:23:06;;;;;;;;;;;20.10;99.90;;;;;;4592996;19;20430;-43
2022/08/06 07:24:37;;;;;;;;;;;20.00;99.90;;;;;;4592700;19;20315;-40
2022/08/06 07:26:08;;;;;;;;;;;20.00;99.90;;;;;;4592673;19;19911;-35
2022/08/06 07:27:40;;;;;;;;;;;20.00;99.90;;;;;;4592706;19;19914;-34
2022/08/06 07:29:11;;;;;;;;;;;19.90;99.90;;;;;;4593560;19;20347;-34
2022/08/06 07:30:43;;;;;;;;;;;19.90;99.90;;;;;;4591270;19;19911;-39
2022/08/06 07:32:14;;;;;;;;;;;20.00;99.90;;;;;;4592164;19;19929;-37
2022/08/06 07:33:45;;;;;;;;;;;20.00;99.90;;;;;;4593189;19;20243;-35
2022/08/06 07:35:17;;;;;;;;;;;20.00;99.90;;;;;;4593608;19;19923;-37
2022/08/06 07:36:51;;;;;;;;;;;19.90;99.90;;;;;;4592128;19;19919;-36
2022/08/06 07:38:22;;;;;;;;;;;20.00;99.90;;;;;;4592244;19;19919;-40
2022/08/06 07:39:53;;;;;;;;;;;20.00;99.90;;;;;;4593547;19;20259;-41
2022/08/06 07:41:23;;;;;;;;;;;19.90;99.90;;;;;;4589997;19;19919;-42
2022/08/06 07:43:15;;;;;;;;;;;19.90;99.90;;;;;;4593242;19;19923;-38
2022/08/06 07:44:51;;;;;;;;;;;19.90;99.90;;;;;;4594861;19;20329;-36
2022/08/06 07:46:23;;;;;;;;;;;19.90;99.90;;;;;;4594187;19;20353;-30
2022/08/06 07:47:54;;;;;;;;;;;19.90;99.90;;;;;;4593254;19;19922;-34
2022/08/06 07:49:35;;;;;;;;;;;19.90;99.90;;;;;;4595479;19;19927;-31
2022/08/06 07:51:06;;;;;;;;;;;19.80;99.90;;;;;;4595274;19;19915;-32
2022/08/06 07:52:38;;;;;;;;;;;19.80;99.90;;;;;;4594078;19;19922;-33
2022/08/06 07:54:09;;;;;;;;;;;19.80;99.90;;;;;;4593657;19;19922;-36
2022/08/06 07:55:42;;;;;;;;;;;19.80;99.90;;;;;;4594670;19;19922;-35
2022/08/06 07:57:13;;;;;;;;;;;19.80;99.90;;;;;;4595558;19;19926;-32
2022/08/06 07:58:44;;;;;;;;;;;19.90;99.90;;;;;;4594228;19;19919;-34
2022/08/06 08:00:15;;;;;;;;;;;19.90;99.90;;;;;;4594809;19;20334;-37
2022/08/06 08:01:46;;;;;;;;;;;19.90;99.90;;;;;;4594195;19;19915;-36
2022/08/06 08:07:00;;;;;;;;;;;20.00;99.90;;;;;;4593790;19;19974;-37
2022/08/06 08:08:31;;;;;;;;;;;20.00;99.90;;;;;;4594084;19;19927;-36
2022/08/06 08:10:02;;;;;;;;;;;20.00;99.90;;;;;;4595043;19;20337;-39
2022/08/06 08:11:33;;;;;;;;;;;20.00;99.90;;;;;;4595109;19;20257;-41
2022/08/06 08:13:04;;;;;;;;;;;20.00;99.90;;;;;;4594381;19;20288;-34
2022/08/06 08:14:35;;;;;;;;;;;20.00;99.90;;;;;;4594865;19;19925;-33
2022/08/06 08:16:11;;;;;;;;;;;20.00;99.90;;;;;;4594659;19;20233;-39
2022/08/06 08:17:42;;;;;;;;;;;20.00;99.90;;;;;;4594223;19;19915;-34
2022/08/06 08:19:22;;;;;;;;;;;20.00;99.90;;;;;;4594616;19;19982;-33
2022/08/06 08:20:52;;;;;;;;;;;20.00;99.90;;;;;;4594082;19;20077;-33
2022/08/06 08:22:23;;;;;;;;;;;20.00;99.90;;;;;;4594013;19;19927;-39
2022/08/06 08:23:54;;;;;;;;;;;19.90;99.90;;;;;;4593831;19;19926;-39
2022/08/06 08:25:25;;;;;;;;;;;20.00;99.90;;;;;;4591964;19;19975;-35
2022/08/06 08:26:56;;;;;;;;;;;20.20;99.90;;;;;;4591043;19;19914;-34
2022/08/06 08:28:27;;;;;;;;;;;20.60;99.90;;;;;;4593350;19;19918;-36
2022/08/06 08:29:58;;;;;;;;;;;20.80;99.90;;;;;;4591785;19;19925;-33
2022/08/06 08:31:29;;;;;;;;;;;21.00;99.90;;;;;;4592681;19;19937;-34
2022/08/06 08:33:02;;;;;;;;;;;21.20;99.90;;;;;;4593182;19;19942;-34
2022/08/06 08:34:33;;;;;;;;;;;21.30;99.90;;;;;;4593045;19;19914;-36
2022/08/06 08:36:04;;;;;;;;;;;21.40;99.90;;;;;;4592198;19;19923;-41
2022/08/06 08:37:36;;;;;;;;;;;21.50;99.90;;;;;;4592306;19;20254;-35
2022/08/06 08:39:07;;;;;;;;;;;21.60;99.90;;;;;;4591944;19;19915;-39
2022/08/06 08:40:38;;;;;;;;;;;21.70;99.90;;;;;;4592667;19;19917;-36
2022/08/06 08:42:17;;;;;;;;;;;21.70;99.90;;;;;;4590898;19;19938;-36
2022/08/06 08:44:00;;;;;;;;;;;21.70;99.90;;;;;;4590760;19;19933;-37
2022/08/06 08:45:30;;;;;;;;;;;21.80;99.90;;;;;;4591744;19;19950;-30
2022/08/06 08:47:02;;;;;;;;;;;22.00;99.90;;;;;;4590972;19;19915;-33
2022/08/06 08:48:33;;;;;;;;;;;22.20;99.90;;;;;;4593285;19;19918;-38
2022/08/06 08:50:04;;;;;;;;;;;22.10;99.90;;;;;;4592395;19;19986;-35
2022/08/06 08:51:37;;;;;;;;;;;21.90;99.90;;;;;;4591607;19;19978;-39
2022/08/06 08:53:12;;;;;;;;;;;21.70;99.90;;;;;;4590761;19;20361;-34
2022/08/06 08:54:44;;;;;;;;;;;21.30;99.90;;;;;;4592049;19;19922;-29
2022/08/06 08:56:16;;;;;;;;;;;20.90;99.90;;;;;;4592502;19;20339;-33
2022/08/06 08:57:47;;;;;;;;;;;20.70;99.90;;;;;;4590759;19;19919;-33
2022/08/06 08:59:18;;;;;;;;;;;19.40;99.90;;;;;;4590672;19;19919;-33
2022/08/06 09:00:50;;;;;;;1.75;1.13;;;19.10;99.90;;;;;;4590488;19;19919;-34
2022/08/06 09:02:23;;;;;;;1.27;0.90;;;19.00;99.90;;;;;;4590957;19;20494;-33
2022/08/06 09:03:54;;;;;;;2.28;1.30;;;19.10;99.90;;;;;;4587513;19;20388;-42